sensor_id;sensor_type;location;lat;lon;timestamp;P1;durP1;ratioP1;P2;durP2;ratioP2
32138;SDS011;18644;48.700;9.210;2022-12-18T00:02:15;25.77;;;13.75;;
32138;SDS011;18644;48.700;9.210;2022-12-18T00:04:42;27.50;;;13.63;;
32138;SDS011;18644;48.700;9.210;2022-12-18T00:07:10;28.25;;;13.13;;
32138;SDS011;18644;48.700;9.210;2022-12-18T00:09:37;31.92;;;14.40;;
32138;SDS011;18644;48.700;9.210;2022-12-18T00:12:04;26.00;;;12.30;;
32138;SDS011;18644;48.700;9.210;2022-12-18T00:14:32;29.77;;;13.18;;
32138;SDS011;18644;48.700;9.210;2022-12-18T00:16:58;30.52;;;13.48;;
32138;SDS011;18644;48.700;9.210;2022-12-18T00:19:25;31.45;;;11.05;;
32138;SDS011;18644;48.700;9.210;2022-12-18T00:21:53;28.27;;;13.20;;
32138;SDS011;18644;48.700;9.210;2022-12-18T00:24:21;25.30;;;13.27;;
32138;SDS011;18644;48.700;9.210;2022-12-18T00:26:48;30.05;;;14.00;;
32138;SDS011;18644;48.700;9.210;2022-12-18T00:29:15;30.73;;;12.73;;
32138;SDS011;18644;48.700;9.210;2022-12-18T00:31:42;26.08;;;13.52;;
32138;SDS011;18644;48.700;9.210;2022-12-18T00:34:10;24.83;;;11.93;;
32138;SDS011;18644;48.700;9.210;2022-12-18T00:36:38;28.13;;;12.88;;
32138;SDS011;18644;48.700;9.210;2022-12-18T00:39:06;28.55;;;12.23;;
32138;SDS011;18644;48.700;9.210;2022-12-18T00:41:35;26.88;;;14.18;;
32138;SDS011;18644;48.700;9.210;2022-12-18T00:44:19;29.25;;;15.35;;
32138;SDS011;18644;48.700;9.210;2022-12-18T00:46:46;24.15;;;12.45;;
32138;SDS011;18644;48.700;9.210;2022-12-18T00:49:14;27.83;;;13.05;;
32138;SDS011;18644;48.700;9.210;2022-12-18T00:51:42;27.98;;;11.88;;
32138;SDS011;18644;48.700;9.210;2022-12-18T00:54:09;26.90;;;12.95;;
32138;SDS011;18644;48.700;9.210;2022-12-18T00:56:38;23.05;;;11.82;;
32138;SDS011;18644;48.700;9.210;2022-12-18T00:59:05;24.92;;;13.13;;
32138;SDS011;18644;48.700;9.210;2022-12-18T01:01:32;25.15;;;13.10;;
32138;SDS011;18644;48.700;9.210;2022-12-18T01:04:00;37.60;;;14.75;;
32138;SDS011;18644;48.700;9.210;2022-12-18T01:06:28;43.47;;;15.75;;
32138;SDS011;18644;48.700;9.210;2022-12-18T01:08:55;38.15;;;14.80;;
32138;SDS011;18644;48.700;9.210;2022-12-18T01:11:22;39.70;;;13.73;;
32138;SDS011;18644;48.700;9.210;2022-12-18T01:13:51;46.35;;;17.40;;
32138;SDS011;18644;48.700;9.210;2022-12-18T01:16:19;51.05;;;16.88;;
32138;SDS011;18644;48.700;9.210;2022-12-18T01:18:46;71.65;;;22.35;;
32138;SDS011;18644;48.700;9.210;2022-12-18T01:21:14;52.45;;;17.50;;
32138;SDS011;18644;48.700;9.210;2022-12-18T01:23:42;59.30;;;17.67;;
32138;SDS011;18644;48.700;9.210;2022-12-18T01:26:11;59.35;;;18.83;;
32138;SDS011;18644;48.700;9.210;2022-12-18T01:28:40;57.40;;;20.73;;
32138;SDS011;18644;48.700;9.210;2022-12-18T01:31:10;57.17;;;20.05;;
32138;SDS011;18644;48.700;9.210;2022-12-18T01:33:39;38.88;;;17.30;;
32138;SDS011;18644;48.700;9.210;2022-12-18T01:36:07;37.65;;;14.25;;
32138;SDS011;18644;48.700;9.210;2022-12-18T01:38:40;45.55;;;16.58;;
32138;SDS011;18644;48.700;9.210;2022-12-18T01:41:08;46.13;;;17.77;;
32138;SDS011;18644;48.700;9.210;2022-12-18T01:43:45;66.72;;;22.83;;
32138;SDS011;18644;48.700;9.210;2022-12-18T01:46:18;61.00;;;22.52;;
32138;SDS011;18644;48.700;9.210;2022-12-18T01:48:47;43.10;;;17.48;;
32138;SDS011;18644;48.700;9.210;2022-12-18T01:51:20;35.47;;;14.82;;
32138;SDS011;18644;48.700;9.210;2022-12-18T01:53:47;32.58;;;14.32;;
32138;SDS011;18644;48.700;9.210;2022-12-18T01:56:15;32.85;;;15.13;;
32138;SDS011;18644;48.700;9.210;2022-12-18T01:58:46;39.78;;;16.58;;
32138;SDS011;18644;48.700;9.210;2022-12-18T02:01:21;41.20;;;18.83;;
32138;SDS011;18644;48.700;9.210;2022-12-18T02:03:50;51.03;;;20.05;;
32138;SDS011;18644;48.700;9.210;2022-12-18T02:06:19;53.28;;;19.63;;
32138;SDS011;18644;48.700;9.210;2022-12-18T02:08:55;53.65;;;21.23;;
32138;SDS011;18644;48.700;9.210;2022-12-18T02:11:39;51.47;;;18.55;;
32138;SDS011;18644;48.700;9.210;2022-12-18T02:14:16;45.00;;;19.23;;
32138;SDS011;18644;48.700;9.210;2022-12-18T02:16:51;38.92;;;17.65;;
32138;SDS011;18644;48.700;9.210;2022-12-18T02:19:35;38.00;;;16.23;;
32138;SDS011;18644;48.700;9.210;2022-12-18T02:22:21;35.17;;;14.50;;
32138;SDS011;18644;48.700;9.210;2022-12-18T02:25:00;27.95;;;14.93;;
32138;SDS011;18644;48.700;9.210;2022-12-18T02:27:42;41.67;;;16.80;;
32138;SDS011;18644;48.700;9.210;2022-12-18T02:30:11;40.40;;;17.42;;
32138;SDS011;18644;48.700;9.210;2022-12-18T02:32:39;38.53;;;15.90;;
32138;SDS011;18644;48.700;9.210;2022-12-18T02:35:15;39.00;;;16.97;;
32138;SDS011;18644;48.700;9.210;2022-12-18T02:37:48;43.38;;;19.63;;
32138;SDS011;18644;48.700;9.210;2022-12-18T02:40:17;45.97;;;18.40;;
32138;SDS011;18644;48.700;9.210;2022-12-18T02:42:46;51.47;;;20.55;;
32138;SDS011;18644;48.700;9.210;2022-12-18T02:45:13;54.88;;;22.50;;
32138;SDS011;18644;48.700;9.210;2022-12-18T02:47:40;53.55;;;23.63;;
32138;SDS011;18644;48.700;9.210;2022-12-18T02:50:13;62.80;;;24.60;;
32138;SDS011;18644;48.700;9.210;2022-12-18T02:52:48;58.50;;;24.10;;
32138;SDS011;18644;48.700;9.210;2022-12-18T02:55:29;41.75;;;17.08;;
32138;SDS011;18644;48.700;9.210;2022-12-18T02:58:14;46.45;;;18.77;;
32138;SDS011;18644;48.700;9.210;2022-12-18T03:00:47;37.80;;;18.25;;
32138;SDS011;18644;48.700;9.210;2022-12-18T03:03:19;36.55;;;16.65;;
32138;SDS011;18644;48.700;9.210;2022-12-18T03:05:52;37.60;;;16.35;;
32138;SDS011;18644;48.700;9.210;2022-12-18T03:08:24;41.03;;;18.08;;
32138;SDS011;18644;48.700;9.210;2022-12-18T03:10:56;30.23;;;14.18;;
32138;SDS011;18644;48.700;9.210;2022-12-18T03:13:30;38.15;;;16.38;;
32138;SDS011;18644;48.700;9.210;2022-12-18T03:15:59;38.38;;;17.55;;
32138;SDS011;18644;48.700;9.210;2022-12-18T03:18:30;38.08;;;16.77;;
32138;SDS011;18644;48.700;9.210;2022-12-18T03:21:02;41.97;;;19.13;;
32138;SDS011;18644;48.700;9.210;2022-12-18T03:23:34;37.38;;;18.45;;
32138;SDS011;18644;48.700;9.210;2022-12-18T03:26:07;44.03;;;18.83;;
32138;SDS011;18644;48.700;9.210;2022-12-18T03:28:42;38.38;;;16.80;;
32138;SDS011;18644;48.700;9.210;2022-12-18T03:31:13;39.08;;;16.85;;
32138;SDS011;18644;48.700;9.210;2022-12-18T03:33:41;28.50;;;14.27;;
32138;SDS011;18644;48.700;9.210;2022-12-18T03:36:13;32.67;;;15.75;;
32138;SDS011;18644;48.700;9.210;2022-12-18T03:38:40;34.15;;;14.88;;
32138;SDS011;18644;48.700;9.210;2022-12-18T03:41:11;33.13;;;15.70;;
32138;SDS011;18644;48.700;9.210;2022-12-18T03:43:48;45.42;;;19.60;;
32138;SDS011;18644;48.700;9.210;2022-12-18T03:46:24;37.92;;;18.58;;
32138;SDS011;18644;48.700;9.210;2022-12-18T03:48:58;31.50;;;15.35;;
32138;SDS011;18644;48.700;9.210;2022-12-18T03:51:33;31.42;;;15.38;;
32138;SDS011;18644;48.700;9.210;2022-12-18T03:54:06;31.83;;;15.70;;
32138;SDS011;18644;48.700;9.210;2022-12-18T03:56:36;30.55;;;15.40;;
32138;SDS011;18644;48.700;9.210;2022-12-18T03:59:09;31.15;;;15.52;;
32138;SDS011;18644;48.700;9.210;2022-12-18T04:01:39;31.08;;;15.75;;
32138;SDS011;18644;48.700;9.210;2022-12-18T04:04:09;29.85;;;14.63;;
32138;SDS011;18644;48.700;9.210;2022-12-18T04:06:38;27.23;;;13.68;;
32138;SDS011;18644;48.700;9.210;2022-12-18T04:09:07;29.15;;;13.90;;
32138;SDS011;18644;48.700;9.210;2022-12-18T04:11:34;26.27;;;12.43;;
32138;SDS011;18644;48.700;9.210;2022-12-18T04:14:01;26.70;;;13.85;;
32138;SDS011;18644;48.700;9.210;2022-12-18T04:16:30;27.67;;;13.30;;
32138;SDS011;18644;48.700;9.210;2022-12-18T04:18:57;25.50;;;12.35;;
32138;SDS011;18644;48.700;9.210;2022-12-18T04:21:24;27.95;;;13.25;;
32138;SDS011;18644;48.700;9.210;2022-12-18T04:23:51;24.83;;;12.07;;
32138;SDS011;18644;48.700;9.210;2022-12-18T04:26:18;29.77;;;13.50;;
32138;SDS011;18644;48.700;9.210;2022-12-18T04:28:45;27.55;;;13.23;;
32138;SDS011;18644;48.700;9.210;2022-12-18T04:31:12;33.38;;;13.50;;
32138;SDS011;18644;48.700;9.210;2022-12-18T04:33:40;34.08;;;14.20;;
32138;SDS011;18644;48.700;9.210;2022-12-18T04:36:07;29.77;;;13.38;;
32138;SDS011;18644;48.700;9.210;2022-12-18T04:38:34;27.55;;;13.55;;
32138;SDS011;18644;48.700;9.210;2022-12-18T04:41:01;29.95;;;13.32;;
32138;SDS011;18644;48.700;9.210;2022-12-18T04:43:28;29.90;;;14.30;;
32138;SDS011;18644;48.700;9.210;2022-12-18T04:46:00;27.20;;;13.27;;
32138;SDS011;18644;48.700;9.210;2022-12-18T04:48:29;30.85;;;13.55;;
32138;SDS011;18644;48.700;9.210;2022-12-18T04:50:57;30.67;;;13.15;;
32138;SDS011;18644;48.700;9.210;2022-12-18T04:53:24;29.27;;;12.93;;
32138;SDS011;18644;48.700;9.210;2022-12-18T04:56:01;28.35;;;12.40;;
32138;SDS011;18644;48.700;9.210;2022-12-18T04:58:30;27.13;;;11.70;;
32138;SDS011;18644;48.700;9.210;2022-12-18T05:00:57;28.08;;;13.57;;
32138;SDS011;18644;48.700;9.210;2022-12-18T05:03:24;35.10;;;14.90;;
32138;SDS011;18644;48.700;9.210;2022-12-18T05:05:51;29.58;;;13.35;;
32138;SDS011;18644;48.700;9.210;2022-12-18T05:08:20;24.67;;;12.15;;
32138;SDS011;18644;48.700;9.210;2022-12-18T05:10:47;33.03;;;14.43;;
32138;SDS011;18644;48.700;9.210;2022-12-18T05:13:14;24.77;;;11.88;;
32138;SDS011;18644;48.700;9.210;2022-12-18T05:15:41;26.48;;;12.50;;
32138;SDS011;18644;48.700;9.210;2022-12-18T05:18:08;25.95;;;12.75;;
32138;SDS011;18644;48.700;9.210;2022-12-18T05:20:35;36.08;;;14.65;;
32138;SDS011;18644;48.700;9.210;2022-12-18T05:23:02;27.67;;;13.15;;
32138;SDS011;18644;48.700;9.210;2022-12-18T05:25:30;22.50;;;11.10;;
32138;SDS011;18644;48.700;9.210;2022-12-18T05:27:57;24.50;;;13.43;;
32138;SDS011;18644;48.700;9.210;2022-12-18T05:30:24;25.05;;;11.63;;
32138;SDS011;18644;48.700;9.210;2022-12-18T05:32:51;25.55;;;12.05;;
32138;SDS011;18644;48.700;9.210;2022-12-18T05:35:17;23.27;;;12.18;;
32138;SDS011;18644;48.700;9.210;2022-12-18T05:37:44;28.55;;;13.50;;
32138;SDS011;18644;48.700;9.210;2022-12-18T05:40:12;26.05;;;12.35;;
32138;SDS011;18644;48.700;9.210;2022-12-18T05:42:40;26.92;;;12.40;;
32138;SDS011;18644;48.700;9.210;2022-12-18T05:45:07;29.77;;;12.80;;
32138;SDS011;18644;48.700;9.210;2022-12-18T05:47:35;31.52;;;12.77;;
32138;SDS011;18644;48.700;9.210;2022-12-18T05:50:02;33.42;;;12.70;;
32138;SDS011;18644;48.700;9.210;2022-12-18T05:52:30;24.58;;;11.70;;
32138;SDS011;18644;48.700;9.210;2022-12-18T05:54:57;25.50;;;12.27;;
32138;SDS011;18644;48.700;9.210;2022-12-18T05:57:24;24.08;;;11.52;;
32138;SDS011;18644;48.700;9.210;2022-12-18T05:59:52;31.17;;;13.05;;
32138;SDS011;18644;48.700;9.210;2022-12-18T06:02:19;24.60;;;11.15;;
32138;SDS011;18644;48.700;9.210;2022-12-18T06:04:46;21.60;;;11.13;;
32138;SDS011;18644;48.700;9.210;2022-12-18T06:07:13;33.78;;;12.68;;
32138;SDS011;18644;48.700;9.210;2022-12-18T06:09:40;28.10;;;11.98;;
32138;SDS011;18644;48.700;9.210;2022-12-18T06:12:07;27.40;;;13.40;;
32138;SDS011;18644;48.700;9.210;2022-12-18T06:14:35;25.60;;;10.63;;
32138;SDS011;18644;48.700;9.210;2022-12-18T06:17:03;23.55;;;11.88;;
32138;SDS011;18644;48.700;9.210;2022-12-18T06:19:30;27.42;;;13.15;;
32138;SDS011;18644;48.700;9.210;2022-12-18T06:21:57;24.52;;;11.63;;
32138;SDS011;18644;48.700;9.210;2022-12-18T06:24:24;25.08;;;12.18;;
32138;SDS011;18644;48.700;9.210;2022-12-18T06:26:51;24.80;;;11.65;;
32138;SDS011;18644;48.700;9.210;2022-12-18T06:29:18;23.77;;;11.98;;
32138;SDS011;18644;48.700;9.210;2022-12-18T06:31:45;22.40;;;10.27;;
32138;SDS011;18644;48.700;9.210;2022-12-18T06:34:13;18.20;;;10.07;;
32138;SDS011;18644;48.700;9.210;2022-12-18T06:36:40;24.55;;;11.27;;
32138;SDS011;18644;48.700;9.210;2022-12-18T06:39:07;20.50;;;10.57;;
32138;SDS011;18644;48.700;9.210;2022-12-18T06:41:34;20.55;;;9.88;;
32138;SDS011;18644;48.700;9.210;2022-12-18T06:44:01;22.50;;;11.75;;
32138;SDS011;18644;48.700;9.210;2022-12-18T06:46:28;23.65;;;10.80;;
32138;SDS011;18644;48.700;9.210;2022-12-18T06:48:55;23.33;;;11.18;;
32138;SDS011;18644;48.700;9.210;2022-12-18T06:51:23;21.73;;;11.77;;
32138;SDS011;18644;48.700;9.210;2022-12-18T06:53:51;23.15;;;10.27;;
32138;SDS011;18644;48.700;9.210;2022-12-18T06:56:18;23.02;;;10.52;;
32138;SDS011;18644;48.700;9.210;2022-12-18T06:58:45;21.77;;;10.88;;
32138;SDS011;18644;48.700;9.210;2022-12-18T07:01:12;22.05;;;11.27;;
32138;SDS011;18644;48.700;9.210;2022-12-18T07:03:40;21.60;;;9.50;;
32138;SDS011;18644;48.700;9.210;2022-12-18T07:06:12;23.70;;;10.57;;
32138;SDS011;18644;48.700;9.210;2022-12-18T07:08:42;27.33;;;12.02;;
32138;SDS011;18644;48.700;9.210;2022-12-18T07:11:09;20.88;;;10.93;;
32138;SDS011;18644;48.700;9.210;2022-12-18T07:13:36;23.63;;;12.18;;
32138;SDS011;18644;48.700;9.210;2022-12-18T07:16:04;25.25;;;11.40;;
32138;SDS011;18644;48.700;9.210;2022-12-18T07:18:33;20.13;;;10.88;;
32138;SDS011;18644;48.700;9.210;2022-12-18T07:21:02;24.80;;;11.55;;
32138;SDS011;18644;48.700;9.210;2022-12-18T07:23:31;24.23;;;11.10;;
32138;SDS011;18644;48.700;9.210;2022-12-18T07:26:04;24.75;;;12.70;;
32138;SDS011;18644;48.700;9.210;2022-12-18T07:28:34;23.23;;;11.05;;
32138;SDS011;18644;48.700;9.210;2022-12-18T07:31:02;29.20;;;13.52;;
32138;SDS011;18644;48.700;9.210;2022-12-18T07:33:31;26.88;;;12.80;;
32138;SDS011;18644;48.700;9.210;2022-12-18T07:35:58;26.88;;;12.07;;
32138;SDS011;18644;48.700;9.210;2022-12-18T07:38:26;23.98;;;10.35;;
32138;SDS011;18644;48.700;9.210;2022-12-18T07:40:53;28.63;;;11.68;;
32138;SDS011;18644;48.700;9.210;2022-12-18T07:43:21;24.65;;;11.63;;
32138;SDS011;18644;48.700;9.210;2022-12-18T07:45:48;27.75;;;11.85;;
32138;SDS011;18644;48.700;9.210;2022-12-18T07:48:16;26.42;;;12.48;;
32138;SDS011;18644;48.700;9.210;2022-12-18T07:50:43;47.53;;;13.35;;
32138;SDS011;18644;48.700;9.210;2022-12-18T07:53:10;26.23;;;11.93;;
32138;SDS011;18644;48.700;9.210;2022-12-18T07:55:36;29.40;;;12.27;;
32138;SDS011;18644;48.700;9.210;2022-12-18T07:58:04;27.85;;;13.70;;
32138;SDS011;18644;48.700;9.210;2022-12-18T08:00:32;24.67;;;11.98;;
32138;SDS011;18644;48.700;9.210;2022-12-18T08:02:59;32.38;;;12.18;;
32138;SDS011;18644;48.700;9.210;2022-12-18T08:05:26;29.17;;;11.90;;
32138;SDS011;18644;48.700;9.210;2022-12-18T08:07:54;28.23;;;11.77;;
32138;SDS011;18644;48.700;9.210;2022-12-18T08:10:21;28.00;;;11.82;;
32138;SDS011;18644;48.700;9.210;2022-12-18T08:12:49;21.92;;;10.68;;
32138;SDS011;18644;48.700;9.210;2022-12-18T08:15:16;26.45;;;13.18;;
32138;SDS011;18644;48.700;9.210;2022-12-18T08:17:45;26.30;;;11.30;;
32138;SDS011;18644;48.700;9.210;2022-12-18T08:20:12;26.98;;;12.57;;
32138;SDS011;18644;48.700;9.210;2022-12-18T08:22:40;30.80;;;12.85;;
32138;SDS011;18644;48.700;9.210;2022-12-18T08:25:07;26.15;;;12.32;;
32138;SDS011;18644;48.700;9.210;2022-12-18T08:27:35;26.10;;;11.65;;
32138;SDS011;18644;48.700;9.210;2022-12-18T08:30:03;27.45;;;12.30;;
32138;SDS011;18644;48.700;9.210;2022-12-18T08:32:31;30.83;;;13.88;;
32138;SDS011;18644;48.700;9.210;2022-12-18T08:35:00;33.42;;;13.52;;
32138;SDS011;18644;48.700;9.210;2022-12-18T08:37:27;24.83;;;12.68;;
32138;SDS011;18644;48.700;9.210;2022-12-18T08:39:53;29.13;;;14.02;;
32138;SDS011;18644;48.700;9.210;2022-12-18T08:42:20;29.00;;;13.98;;
32138;SDS011;18644;48.700;9.210;2022-12-18T08:45:05;30.23;;;14.90;;
32138;SDS011;18644;48.700;9.210;2022-12-18T08:47:34;27.25;;;13.25;;
32138;SDS011;18644;48.700;9.210;2022-12-18T08:50:02;31.70;;;13.90;;
32138;SDS011;18644;48.700;9.210;2022-12-18T08:52:31;34.88;;;16.38;;
32138;SDS011;18644;48.700;9.210;2022-12-18T08:54:58;27.10;;;13.40;;
32138;SDS011;18644;48.700;9.210;2022-12-18T08:57:25;36.90;;;17.45;;
32138;SDS011;18644;48.700;9.210;2022-12-18T08:59:52;31.13;;;16.58;;
32138;SDS011;18644;48.700;9.210;2022-12-18T09:02:19;26.90;;;13.70;;
32138;SDS011;18644;48.700;9.210;2022-12-18T09:04:46;36.38;;;17.20;;
32138;SDS011;18644;48.700;9.210;2022-12-18T09:07:14;29.25;;;14.93;;
32138;SDS011;18644;48.700;9.210;2022-12-18T09:09:41;43.85;;;18.02;;
32138;SDS011;18644;48.700;9.210;2022-12-18T09:12:08;54.70;;;20.10;;
32138;SDS011;18644;48.700;9.210;2022-12-18T09:14:35;34.78;;;18.02;;
32138;SDS011;18644;48.700;9.210;2022-12-18T09:17:02;36.70;;;16.20;;
32138;SDS011;18644;48.700;9.210;2022-12-18T09:19:30;39.42;;;18.80;;
32138;SDS011;18644;48.700;9.210;2022-12-18T09:21:57;37.17;;;18.27;;
32138;SDS011;18644;48.700;9.210;2022-12-18T09:24:25;37.45;;;17.58;;
32138;SDS011;18644;48.700;9.210;2022-12-18T09:26:52;38.33;;;16.52;;
32138;SDS011;18644;48.700;9.210;2022-12-18T09:29:21;33.28;;;16.35;;
32138;SDS011;18644;48.700;9.210;2022-12-18T09:31:48;37.20;;;14.45;;
32138;SDS011;18644;48.700;9.210;2022-12-18T09:34:15;28.30;;;12.68;;
32138;SDS011;18644;48.700;9.210;2022-12-18T09:36:42;29.65;;;14.15;;
32138;SDS011;18644;48.700;9.210;2022-12-18T09:39:12;31.35;;;14.13;;
32138;SDS011;18644;48.700;9.210;2022-12-18T09:41:41;25.75;;;13.35;;
32138;SDS011;18644;48.700;9.210;2022-12-18T09:44:14;39.30;;;14.50;;
32138;SDS011;18644;48.700;9.210;2022-12-18T09:46:48;27.48;;;12.65;;
32138;SDS011;18644;48.700;9.210;2022-12-18T09:49:22;30.98;;;14.63;;
32138;SDS011;18644;48.700;9.210;2022-12-18T09:51:54;25.63;;;13.23;;
32138;SDS011;18644;48.700;9.210;2022-12-18T09:54:26;25.05;;;11.80;;
32138;SDS011;18644;48.700;9.210;2022-12-18T09:57:02;26.90;;;12.95;;
32138;SDS011;18644;48.700;9.210;2022-12-18T09:59:30;26.10;;;14.07;;
32138;SDS011;18644;48.700;9.210;2022-12-18T10:02:11;32.47;;;13.45;;
32138;SDS011;18644;48.700;9.210;2022-12-18T10:04:41;30.40;;;13.82;;
32138;SDS011;18644;48.700;9.210;2022-12-18T10:07:09;29.95;;;15.15;;
32138;SDS011;18644;48.700;9.210;2022-12-18T10:09:43;29.30;;;14.63;;
32138;SDS011;18644;48.700;9.210;2022-12-18T10:12:21;31.60;;;16.38;;
32138;SDS011;18644;48.700;9.210;2022-12-18T10:14:55;28.33;;;14.85;;
32138;SDS011;18644;48.700;9.210;2022-12-18T10:17:30;31.83;;;17.00;;
32138;SDS011;18644;48.700;9.210;2022-12-18T10:20:10;29.90;;;15.80;;
32138;SDS011;18644;48.700;9.210;2022-12-18T10:22:44;32.05;;;16.48;;
32138;SDS011;18644;48.700;9.210;2022-12-18T10:25:21;34.15;;;16.63;;
32138;SDS011;18644;48.700;9.210;2022-12-18T10:27:55;32.85;;;16.85;;
32138;SDS011;18644;48.700;9.210;2022-12-18T10:30:24;33.03;;;16.63;;
32138;SDS011;18644;48.700;9.210;2022-12-18T10:32:52;33.17;;;16.77;;
32138;SDS011;18644;48.700;9.210;2022-12-18T10:35:22;35.83;;;16.83;;
32138;SDS011;18644;48.700;9.210;2022-12-18T10:38:01;36.42;;;17.83;;
32138;SDS011;18644;48.700;9.210;2022-12-18T10:40:31;33.10;;;17.75;;
32138;SDS011;18644;48.700;9.210;2022-12-18T10:43:10;36.35;;;18.15;;
32138;SDS011;18644;48.700;9.210;2022-12-18T10:45:40;42.70;;;18.92;;
32138;SDS011;18644;48.700;9.210;2022-12-18T10:48:17;37.88;;;19.05;;
32138;SDS011;18644;48.700;9.210;2022-12-18T10:50:46;35.80;;;19.70;;
32138;SDS011;18644;48.700;9.210;2022-12-18T10:53:18;42.05;;;20.08;;
32138;SDS011;18644;48.700;9.210;2022-12-18T10:55:48;38.20;;;19.75;;
32138;SDS011;18644;48.700;9.210;2022-12-18T10:58:20;38.33;;;20.00;;
32138;SDS011;18644;48.700;9.210;2022-12-18T11:01:10;42.75;;;19.00;;
32138;SDS011;18644;48.700;9.210;2022-12-18T11:03:41;38.80;;;19.00;;
32138;SDS011;18644;48.700;9.210;2022-12-18T11:06:11;39.78;;;19.10;;
32138;SDS011;18644;48.700;9.210;2022-12-18T11:08:41;38.55;;;19.20;;
32138;SDS011;18644;48.700;9.210;2022-12-18T11:11:19;41.60;;;20.67;;
32138;SDS011;18644;48.700;9.210;2022-12-18T11:13:51;35.50;;;19.13;;
32138;SDS011;18644;48.700;9.210;2022-12-18T11:16:28;37.83;;;19.73;;
32138;SDS011;18644;48.700;9.210;2022-12-18T11:19:08;38.30;;;20.23;;
32138;SDS011;18644;48.700;9.210;2022-12-18T11:21:47;39.78;;;18.20;;
32138;SDS011;18644;48.700;9.210;2022-12-18T11:24:21;32.80;;;16.77;;
32138;SDS011;18644;48.700;9.210;2022-12-18T11:26:55;36.92;;;17.40;;
32138;SDS011;18644;48.700;9.210;2022-12-18T11:29:27;32.70;;;16.73;;
32138;SDS011;18644;48.700;9.210;2022-12-18T11:32:12;32.92;;;17.55;;
32138;SDS011;18644;48.700;9.210;2022-12-18T11:35:09;28.55;;;15.55;;
32138;SDS011;18644;48.700;9.210;2022-12-18T11:37:43;29.90;;;15.13;;
32138;SDS011;18644;48.700;9.210;2022-12-18T11:40:16;28.85;;;15.68;;
32138;SDS011;18644;48.700;9.210;2022-12-18T11:45:23;25.70;;;12.55;;
32138;SDS011;18644;48.700;9.210;2022-12-18T11:47:56;34.28;;;14.38;;
32138;SDS011;18644;48.700;9.210;2022-12-18T11:50:29;28.58;;;13.98;;
32138;SDS011;18644;48.700;9.210;2022-12-18T11:53:04;27.85;;;14.38;;
32138;SDS011;18644;48.700;9.210;2022-12-18T11:58:10;23.73;;;11.27;;
32138;SDS011;18644;48.700;9.210;2022-12-18T12:00:46;25.15;;;13.43;;
32138;SDS011;18644;48.700;9.210;2022-12-18T12:03:24;31.50;;;13.90;;
32138;SDS011;18644;48.700;9.210;2022-12-18T12:06:10;22.75;;;12.48;;
32138;SDS011;18644;48.700;9.210;2022-12-18T12:08:52;25.48;;;12.30;;
32138;SDS011;18644;48.700;9.210;2022-12-18T12:11:31;25.58;;;13.13;;
32138;SDS011;18644;48.700;9.210;2022-12-18T12:14:10;25.50;;;12.73;;
32138;SDS011;18644;48.700;9.210;2022-12-18T12:16:56;27.27;;;13.45;;
32138;SDS011;18644;48.700;9.210;2022-12-18T12:19:33;25.77;;;13.43;;
32138;SDS011;18644;48.700;9.210;2022-12-18T12:22:13;23.77;;;12.13;;
32138;SDS011;18644;48.700;9.210;2022-12-18T12:24:55;25.83;;;12.40;;
32138;SDS011;18644;48.700;9.210;2022-12-18T12:27:34;27.40;;;14.40;;
32138;SDS011;18644;48.700;9.210;2022-12-18T12:30:09;30.83;;;13.60;;
32138;SDS011;18644;48.700;9.210;2022-12-18T12:32:49;27.15;;;13.75;;
32138;SDS011;18644;48.700;9.210;2022-12-18T12:35:32;29.55;;;14.52;;
32138;SDS011;18644;48.700;9.210;2022-12-18T12:38:15;26.85;;;13.68;;
32138;SDS011;18644;48.700;9.210;2022-12-18T12:40:47;29.00;;;13.68;;
32138;SDS011;18644;48.700;9.210;2022-12-18T12:43:24;27.02;;;13.70;;
32138;SDS011;18644;48.700;9.210;2022-12-18T12:45:58;29.83;;;14.15;;
32138;SDS011;18644;48.700;9.210;2022-12-18T12:48:37;28.90;;;14.60;;
32138;SDS011;18644;48.700;9.210;2022-12-18T12:51:10;34.60;;;15.35;;
32138;SDS011;18644;48.700;9.210;2022-12-18T12:53:43;25.58;;;13.98;;
32138;SDS011;18644;48.700;9.210;2022-12-18T12:56:11;29.40;;;15.23;;
32138;SDS011;18644;48.700;9.210;2022-12-18T12:58:45;33.80;;;15.25;;
32138;SDS011;18644;48.700;9.210;2022-12-18T13:01:24;24.75;;;13.45;;
32138;SDS011;18644;48.700;9.210;2022-12-18T13:04:04;29.60;;;14.50;;
32138;SDS011;18644;48.700;9.210;2022-12-18T13:06:42;29.67;;;14.13;;
32138;SDS011;18644;48.700;9.210;2022-12-18T13:09:14;29.27;;;13.95;;
32138;SDS011;18644;48.700;9.210;2022-12-18T13:11:41;28.77;;;14.32;;
32138;SDS011;18644;48.700;9.210;2022-12-18T13:14:29;31.17;;;14.82;;
32138;SDS011;18644;48.700;9.210;2022-12-18T13:17:16;32.55;;;14.88;;
32138;SDS011;18644;48.700;9.210;2022-12-18T13:20:05;34.67;;;15.68;;
32138;SDS011;18644;48.700;9.210;2022-12-18T13:22:37;31.10;;;16.65;;
32138;SDS011;18644;48.700;9.210;2022-12-18T13:27:57;29.65;;;15.25;;
32138;SDS011;18644;48.700;9.210;2022-12-18T13:30:41;34.03;;;16.20;;
32138;SDS011;18644;48.700;9.210;2022-12-18T13:36:16;28.55;;;14.30;;
32138;SDS011;18644;48.700;9.210;2022-12-18T13:48:13;23.10;;;12.07;;
32138;SDS011;18644;48.700;9.210;2022-12-18T13:50:57;24.90;;;12.60;;
32138;SDS011;18644;48.700;9.210;2022-12-18T13:53:31;23.80;;;12.32;;
32138;SDS011;18644;48.700;9.210;2022-12-18T13:56:03;27.65;;;13.43;;
32138;SDS011;18644;48.700;9.210;2022-12-18T13:58:31;26.63;;;13.00;;
32138;SDS011;18644;48.700;9.210;2022-12-18T14:00:59;25.50;;;13.88;;
32138;SDS011;18644;48.700;9.210;2022-12-18T14:03:28;23.85;;;12.98;;
32138;SDS011;18644;48.700;9.210;2022-12-18T14:05:58;22.20;;;12.20;;
32138;SDS011;18644;48.700;9.210;2022-12-18T14:08:33;24.00;;;12.57;;
32138;SDS011;18644;48.700;9.210;2022-12-18T14:11:05;26.33;;;13.57;;
32138;SDS011;18644;48.700;9.210;2022-12-18T14:13:34;21.77;;;12.02;;
32138;SDS011;18644;48.700;9.210;2022-12-18T14:16:05;28.88;;;13.75;;
32138;SDS011;18644;48.700;9.210;2022-12-18T14:18:38;25.95;;;13.23;;
32138;SDS011;18644;48.700;9.210;2022-12-18T14:21:18;26.05;;;12.70;;
32138;SDS011;18644;48.700;9.210;2022-12-18T14:23:50;37.20;;;14.10;;
32138;SDS011;18644;48.700;9.210;2022-12-18T14:26:37;26.30;;;13.38;;
32138;SDS011;18644;48.700;9.210;2022-12-18T14:29:17;21.98;;;11.48;;
32138;SDS011;18644;48.700;9.210;2022-12-18T14:32:05;25.88;;;12.45;;
32138;SDS011;18644;48.700;9.210;2022-12-18T14:34:42;29.35;;;12.73;;
32138;SDS011;18644;48.700;9.210;2022-12-18T14:37:09;27.73;;;13.50;;
32138;SDS011;18644;48.700;9.210;2022-12-18T14:39:39;23.75;;;12.00;;
32138;SDS011;18644;48.700;9.210;2022-12-18T14:42:09;23.90;;;12.43;;
32138;SDS011;18644;48.700;9.210;2022-12-18T14:44:36;27.55;;;13.85;;
32138;SDS011;18644;48.700;9.210;2022-12-18T14:47:04;34.63;;;13.40;;
32138;SDS011;18644;48.700;9.210;2022-12-18T14:49:31;28.65;;;14.05;;
32138;SDS011;18644;48.700;9.210;2022-12-18T14:52:00;26.90;;;13.02;;
32138;SDS011;18644;48.700;9.210;2022-12-18T14:54:29;27.70;;;14.38;;
32138;SDS011;18644;48.700;9.210;2022-12-18T14:56:59;26.27;;;13.38;;
32138;SDS011;18644;48.700;9.210;2022-12-18T14:59:29;33.30;;;14.85;;
32138;SDS011;18644;48.700;9.210;2022-12-18T15:01:58;29.75;;;13.90;;
32138;SDS011;18644;48.700;9.210;2022-12-18T15:04:30;33.88;;;15.07;;